Time;durP1;ratioP1;P1;durP2;ratioP2;P2;SDS_P1;SDS_P2;PMS_P1;PMS_P2;Temp;Humidity;BMP_temperature;BMP_pressure;BME280_temperature;BME280_humidity;BME280_pressure;Samples;Min_cycle;Max_cycle;Signal;HPM_P1;HPM_P2
2022/10/07 00:01:05;;;;;;;0.00;0.00;;;18.30;77.10;;;;;;4192148;28;20043;-67
2022/10/07 00:03:46;;;;;;;0.00;0.00;;;18.30;77.10;;;;;;4193364;28;20071;-67
2022/10/07 00:06:28;;;;;;;0.00;0.00;;;18.30;77.20;;;;;;4193540;28;20052;-65
2022/10/07 00:09:09;;;;;;;0.00;0.00;;;18.30;78.10;;;;;;4182496;28;20044;-67
2022/10/07 00:11:50;;;;;;;0.00;0.00;;;18.30;77.20;;;;;;4193287;28;20058;-67
2022/10/07 00:14:31;;;;;;;0.00;0.00;;;18.30;77.20;;;;;;4193093;28;20056;-67
2022/10/07 00:17:11;;;;;;;0.00;0.00;;;18.30;77.30;;;;;;4193195;28;20220;-67
2022/10/07 00:19:52;;;;;;;0.00;0.00;;;18.30;77.40;;;;;;4190856;28;20125;-67
2022/10/07 00:22:35;;;;;;;0.15;0.15;;;18.30;77.40;;;;;;4187294;28;20048;-67
2022/10/07 00:25:16;;;;;;;0.00;0.00;;;18.20;77.30;;;;;;4192994;28;20058;-67
2022/10/07 00:27:57;;;;;;;0.00;0.00;;;18.20;77.30;;;;;;4193298;28;20403;-71
2022/10/07 00:30:38;;;;;;;0.00;0.00;;;18.20;77.40;;;;;;4192615;28;20047;-71
2022/10/07 00:33:19;;;;;;;0.00;0.00;;;18.20;77.40;;;;;;4176451;28;20056;-71
2022/10/07 00:36:00;;;;;;;0.00;0.00;;;18.20;77.50;;;;;;4183322;28;20105;-71
2022/10/07 00:38:43;;;;;;;0.00;0.00;;;18.20;77.50;;;;;;4192031;28;20430;-70
2022/10/07 00:41:26;;;;;;;0.00;0.00;;;18.20;78.40;;;;;;4192979;28;20122;-71
2022/10/07 00:44:35;;;;;;;0.00;0.00;;;18.20;77.50;;;;;;4192162;28;20462;-71
2022/10/07 00:47:24;;;;;;;0.00;0.00;;;18.20;77.60;;;;;;4191610;28;20122;-70
2022/10/07 00:50:08;;;;;;;0.00;0.00;;;18.20;77.60;;;;;;4192681;28;20117;-65
2022/10/07 00:52:53;;;;;;;0.47;0.47;;;18.10;77.60;;;;;;4176393;28;20083;-65
2022/10/07 00:55:36;;;;;;;0.00;0.00;;;18.10;77.60;;;;;;4181144;28;20461;-71
2022/10/07 00:58:18;;;;;;;0.00;0.00;;;18.10;77.90;;;;;;4191504;28;20060;-71
2022/10/07 01:00:59;;;;;;;0.00;0.00;;;18.10;77.70;;;;;;4192403;28;20055;-70
2022/10/07 01:03:41;;;;;;;0.00;0.00;;;18.10;77.70;;;;;;4191494;28;20514;-69
2022/10/07 01:06:22;;;;;;;;;;;18.10;77.80;;;;;;4191544;28;20055;-69
2022/10/07 01:09:02;;;;;;;0.00;0.00;;;18.10;77.80;;;;;;4173118;28;19931;-69
2022/10/07 01:11:59;;;;;;;0.15;0.15;;;18.10;77.80;;;;;;4175134;28;20099;-69
2022/10/07 01:14:52;;;;;;;0.00;0.00;;;18.00;77.80;;;;;;4157352;28;20207;-69
2022/10/07 01:17:40;;;;;;;0.00;0.00;;;18.00;77.90;;;;;;4174962;28;20059;-69
2022/10/07 01:20:32;;;;;;;0.00;0.00;;;18.00;78.00;;;;;;4176659;28;20051;-70
2022/10/07 01:23:51;;;;;;;0.00;0.00;;;18.00;78.00;;;;;;4175054;28;20064;-67
2022/10/07 01:27:01;;;;;;;0.00;0.00;;;18.00;78.00;;;;;;4155687;28;20057;-66
2022/10/07 01:29:52;;;;;;;0.00;0.00;;;18.00;78.10;;;;;;4174144;28;20094;-67
2022/10/07 01:32:37;;;;;;;0.00;0.00;;;18.00;78.20;;;;;;4174212;28;20059;-67
2022/10/07 01:35:23;;;;;;;0.15;0.15;;;17.90;78.20;;;;;;4173932;28;20039;-67
2022/10/07 01:38:08;;;;;;;0.00;0.00;;;17.90;78.10;;;;;;4190759;28;20558;-67
2022/10/07 01:40:55;;;;;;;0.00;0.00;;;17.90;78.20;;;;;;4190655;28;20095;-67
2022/10/07 01:43:39;;;;;;;0.00;0.00;;;17.90;78.20;;;;;;4190788;28;20163;-70
2022/10/07 01:46:23;;;;;;;0.00;0.00;;;17.90;78.20;;;;;;4201453;28;20064;-70
2022/10/07 01:49:05;;;;;;;0.00;0.00;;;17.90;78.20;;;;;;4189604;28;20063;-70
2022/10/07 01:51:54;;;;;;;0.00;0.00;;;17.80;78.20;;;;;;4190265;28;20122;-70
2022/10/07 01:54:46;;;;;;;0.00;0.00;;;17.80;78.30;;;;;;4185168;28;20050;-70
2022/10/07 01:57:31;;;;;;;;;;;17.80;78.30;;;;;;4175102;28;20098;-70
2022/10/07 02:00:15;;;;;;;0.00;0.00;;;17.80;78.30;;;;;;4158118;28;19928;-70
2022/10/07 02:03:20;;;;;;;0.00;0.00;;;17.80;78.30;;;;;;4162048;28;20051;-69
2022/10/07 02:06:09;;;;;;;0.00;0.00;;;17.80;78.30;;;;;;4168652;28;20526;-72
2022/10/07 02:08:53;;;;;;;0.00;0.00;;;17.80;78.40;;;;;;4191344;28;20075;-71
2022/10/07 02:11:38;;;;;;;0.00;0.00;;;17.80;78.40;;;;;;4173644;28;20059;-70
2022/10/07 02:14:25;;;;;;;0.20;0.20;;;17.80;78.40;;;;;;4173471;28;20056;-70
2022/10/07 02:17:13;;;;;;;0.00;0.00;;;17.80;78.50;;;;;;4157653;28;20076;-67
2022/10/07 02:19:56;;;;;;;0.10;0.10;;;17.70;78.40;;;;;;4134497;28;20511;-67
2022/10/07 02:22:38;;;;;;;;;;;17.80;78.60;;;;;;4171628;28;20430;-67
2022/10/07 02:25:20;;;;;;;;;;;17.70;78.50;;;;;;4174803;28;19927;-67
2022/10/07 02:28:05;;;;;;;0.00;0.00;;;17.80;78.60;;;;;;4188022;28;20425;-67
2022/10/07 02:30:57;;;;;;;0.00;0.00;;;17.70;78.50;;;;;;4190426;28;20193;-67
2022/10/07 02:33:41;;;;;;;0.00;0.00;;;17.70;78.70;;;;;;4190187;28;20048;-67
2022/10/07 02:36:27;;;;;;;0.00;0.00;;;17.70;78.60;;;;;;4190190;28;20064;-67
2022/10/07 02:39:08;;;;;;;0.00;0.00;;;17.70;78.70;;;;;;4190559;28;20048;-68
2022/10/07 02:41:54;;;;;;;0.22;0.22;;;17.70;78.70;;;;;;4191455;28;20048;-67
2022/10/07 02:44:45;;;;;;;0.00;0.00;;;17.70;78.70;;;;;;4190555;28;20482;-67
2022/10/07 02:47:32;;;;;;;0.85;0.85;;;17.70;78.70;;;;;;4176377;28;20121;-70
2022/10/07 02:50:19;;;;;;;0.00;0.00;;;17.60;79.60;;;;;;4189051;28;20613;-70
2022/10/07 02:53:03;;;;;;;0.95;0.95;;;17.70;78.70;;;;;;4189467;28;20056;-73
2022/10/07 02:55:45;;;;;;;0.10;0.10;;;17.60;78.70;;;;;;4174535;28;20048;-71
2022/10/07 02:58:27;;;;;;;0.00;0.00;;;17.60;78.70;;;;;;4177857;28;20497;-71
2022/10/07 03:01:09;;;;;;;0.00;0.00;;;17.60;78.80;;;;;;4162127;28;20068;-71
2022/10/07 03:03:50;;;;;;;0.00;0.00;;;17.60;78.80;;;;;;4162328;28;20415;-71
2022/10/07 03:06:34;;;;;;;0.00;0.00;;;17.60;78.80;;;;;;4190427;28;20521;-71
2022/10/07 03:09:15;;;;;;;0.00;0.00;;;17.60;78.80;;;;;;4201631;28;20133;-70
2022/10/07 03:11:56;;;;;;;0.00;0.00;;;17.60;78.80;;;;;;4189954;28;20102;-70
2022/10/07 03:14:37;;;;;;;0.00;0.00;;;17.60;78.80;;;;;;4174709;28;20506;-71
2022/10/07 03:17:20;;;;;;;0.00;0.00;;;17.60;78.90;;;;;;4184558;28;20060;-70
2022/10/07 03:20:02;;;;;;;0.00;0.00;;;17.60;78.90;;;;;;4179542;28;20055;-70
2022/10/07 03:22:46;;;;;;;0.00;0.00;;;17.50;78.90;;;;;;4176337;28;20113;-71
2022/10/07 03:25:29;;;;;;;0.00;0.00;;;17.60;79.00;;;;;;4179286;28;20129;-71
2022/10/07 03:28:10;;;;;;;0.00;0.00;;;17.60;79.00;;;;;;4164032;28;20167;-67
2022/10/07 03:30:52;;;;;;;0.00;0.00;;;17.50;78.90;;;;;;4176065;28;20404;-68
2022/10/07 03:33:33;;;;;;;;;;;17.50;79.00;;;;;;4181226;28;20387;-68
2022/10/07 03:36:14;;;;;;;0.00;0.00;;;17.50;79.10;;;;;;4180860;28;19931;-68
2022/10/07 03:38:59;;;;;;;0.00;0.00;;;17.50;79.10;;;;;;4180553;28;20170;-68
2022/10/07 03:41:41;;;;;;;0.00;0.00;;;17.50;79.00;;;;;;4180277;28;20051;-67
2022/10/07 03:44:23;;;;;;;0.00;0.00;;;17.50;79.10;;;;;;4190591;28;20063;-69
2022/10/07 03:47:07;;;;;;;0.00;0.00;;;17.50;79.10;;;;;;4176041;28;20056;-67
2022/10/07 03:49:51;;;;;;;0.00;0.00;;;17.50;79.20;;;;;;4180410;28;20059;-67
2022/10/07 03:52:31;;;;;;;0.00;0.00;;;17.50;79.20;;;;;;4192540;28;20502;-67
2022/10/07 03:55:15;;;;;;;0.00;0.00;;;17.50;79.20;;;;;;4192063;28;20063;-67
2022/10/07 03:57:56;;;;;;;0.00;0.00;;;17.50;79.20;;;;;;4167337;28;20060;-71
2022/10/07 04:00:41;;;;;;;0.43;0.43;;;17.50;79.20;;;;;;4175317;28;20605;-72
2022/10/07 04:03:22;;;;;;;0.00;0.00;;;17.50;79.20;;;;;;4167052;28;20515;-72
2022/10/07 04:06:04;;;;;;;0.28;0.28;;;17.50;79.70;;;;;;4176926;28;20048;-69
2022/10/07 04:08:52;;;;;;;0.68;0.68;;;17.40;79.20;;;;;;4175681;28;20183;-70
2022/10/07 04:11:34;;;;;;;0.00;0.00;;;17.50;79.20;;;;;;4192268;28;20054;-70
2022/10/07 04:14:15;;;;;;;0.00;0.00;;;17.40;80.00;;;;;;4152118;28;20490;-67
2022/10/07 04:16:56;;;;;;;0.00;0.00;;;17.40;79.20;;;;;;4147062;28;20076;-67
2022/10/07 04:19:37;;;;;;;0.00;0.00;;;17.40;79.20;;;;;;4183242;28;20457;-67
2022/10/07 04:22:18;;;;;;;0.35;0.35;;;17.40;79.20;;;;;;4180282;28;20457;-67
2022/10/07 04:28:00;;;;;;;0.00;0.00;;;17.40;79.20;;;;;;4178808;28;20110;-67
2022/10/07 04:30:43;;;;;;;0.15;0.15;;;17.40;79.30;;;;;;4175865;28;20372;-67
2022/10/07 04:33:26;;;;;;;0.00;0.00;;;17.40;79.30;;;;;;4191202;28;20129;-67
2022/10/07 04:36:11;;;;;;;0.00;0.00;;;17.40;79.20;;;;;;4191541;28;20048;-67
2022/10/07 04:39:01;;;;;;;0.00;0.00;;;17.40;79.30;;;;;;4191617;28;20051;-68
2022/10/07 04:41:46;;;;;;;0.80;0.80;;;17.40;79.30;;;;;;4191882;28;20051;-67
2022/10/07 04:44:34;;;;;;;0.00;0.00;;;17.40;79.30;;;;;;4191129;28;20072;-67
2022/10/07 04:47:19;;;;;;;0.00;0.00;;;17.40;79.30;;;;;;4191255;28;20043;-66
2022/10/07 04:50:00;;;;;;;0.00;0.00;;;17.40;79.30;;;;;;4186759;28;20056;-67
2022/10/07 04:52:42;;;;;;;0.00;0.00;;;17.30;79.30;;;;;;4163412;28;20055;-67
2022/10/07 04:55:25;;;;;;;0.00;0.00;;;17.40;79.50;;;;;;4177136;28;20063;-67
2022/10/07 04:58:07;;;;;;;0.00;0.00;;;17.40;79.50;;;;;;4179569;28;20126;-67
2022/10/07 05:00:50;;;;;;;;;;;17.30;79.50;;;;;;4175145;28;20150;-67
2022/10/07 05:03:38;;;;;;;0.00;0.00;;;17.30;79.50;;;;;;4140882;28;19928;-67
2022/10/07 05:06:19;;;;;;;0.00;0.00;;;17.30;79.60;;;;;;4151649;28;20052;-66
2022/10/07 05:08:59;;;;;;;0.00;0.00;;;17.30;80.50;;;;;;4162260;28;20072;-67
2022/10/07 05:11:43;;;;;;;0.00;0.00;;;17.30;79.70;;;;;;4175800;28;20047;-67
2022/10/07 05:14:31;;;;;;;0.00;0.00;;;17.20;79.70;;;;;;4162982;28;20047;-67
2022/10/07 05:17:14;;;;;;;0.00;0.00;;;17.20;79.70;;;;;;4179381;28;20074;-70
2022/10/07 05:19:54;;;;;;;0.65;0.65;;;17.20;79.80;;;;;;4190196;28;20502;-70
2022/10/07 05:22:35;;;;;;;0.00;0.00;;;17.20;79.90;;;;;;4179166;28;20052;-72
2022/10/07 05:25:16;;;;;;;0.63;0.63;;;17.20;79.90;;;;;;4189245;28;20043;-70
2022/10/07 05:27:58;;;;;;;0.00;0.00;;;17.20;79.90;;;;;;4175389;28;20372;-71
2022/10/07 05:30:40;;;;;;;0.00;0.00;;;17.20;80.00;;;;;;4147482;28;20142;-71
2022/10/07 05:33:23;;;;;;;0.00;0.00;;;17.20;80.80;;;;;;4146140;28;20168;-70
2022/10/07 05:36:05;;;;;;;0.13;0.13;;;17.20;80.00;;;;;;4164556;28;20056;-71
2022/10/07 05:38:46;;;;;;;0.00;0.00;;;17.20;80.00;;;;;;4178542;28;20573;-69
2022/10/07 05:41:28;;;;;;;0.10;0.10;;;17.20;80.00;;;;;;4174941;28;20576;-69
2022/10/07 05:44:10;;;;;;;0.00;0.00;;;17.20;80.10;;;;;;4173800;28;20519;-70
2022/10/07 05:46:52;;;;;;;0.00;0.00;;;17.20;80.10;;;;;;4145519;28;20620;-68
2022/10/07 05:49:36;;;;;;;0.95;0.93;;;17.20;80.10;;;;;;4158075;28;20050;-69
2022/10/07 05:52:20;;;;;;;0.00;0.00;;;17.20;80.20;;;;;;4188741;28;20067;-74
2022/10/07 05:55:02;;;;;;;0.22;0.22;;;17.20;81.10;;;;;;4172960;28;20122;-74
2022/10/07 05:57:43;;;;;;;0.30;0.30;;;17.20;80.60;;;;;;4175766;28;20122;-75
2022/10/07 06:00:26;;;;;;;0.00;0.00;;;17.20;80.60;;;;;;4172535;28;20561;-75
2022/10/07 06:03:07;;;;;;;0.00;0.00;;;17.20;80.40;;;;;;4174048;28;20380;-75
2022/10/07 06:05:50;;;;;;;0.35;0.35;;;17.20;80.20;;;;;;4186586;28;20174;-75
2022/10/07 06:08:31;;;;;;;0.60;0.60;;;17.20;80.10;;;;;;4173150;28;20055;-74
2022/10/07 06:14:14;;;;;;;0.00;0.00;;;17.20;80.00;;;;;;4174575;28;20090;-75
2022/10/07 06:16:55;;;;;;;0.00;0.00;;;17.20;79.90;;;;;;4179578;28;20051;-74
2022/10/07 06:19:37;;;;;;;1.33;0.93;;;17.20;79.80;;;;;;4191003;28;20052;-75
2022/10/07 06:22:19;;;;;;;0.00;0.00;;;17.10;79.70;;;;;;4190361;28;20054;-76
2022/10/07 06:25:01;;;;;;;0.00;0.00;;;17.10;79.70;;;;;;4189662;28;20048;-75
2022/10/07 06:27:44;;;;;;;0.10;0.10;;;17.10;79.60;;;;;;4189977;28;20067;-76
2022/10/07 06:30:30;;;;;;;0.40;0.40;;;17.10;79.60;;;;;;4185564;28;20052;-76
2022/10/07 06:33:13;;;;;;;0.00;0.00;;;17.10;79.50;;;;;;4174128;28;20098;-75
2022/10/07 06:35:55;;;;;;;0.00;0.00;;;17.10;79.40;;;;;;4179553;28;20431;-76
2022/10/07 06:38:45;;;;;;;0.00;0.00;;;17.10;79.40;;;;;;4190517;28;20398;-75
2022/10/07 06:41:26;;;;;;;0.38;0.38;;;17.10;79.50;;;;;;4190605;28;20055;-76
2022/10/07 06:44:29;;;;;;;0.10;0.10;;;17.10;79.60;;;;;;4191035;28;20087;-75
2022/10/07 06:47:11;;;;;;;0.00;0.00;;;17.10;79.80;;;;;;4176463;28;20438;-76
2022/10/07 06:49:54;;;;;;;0.10;0.10;;;17.00;79.30;;;;;;4173933;28;20050;-75
2022/10/07 06:52:35;;;;;;;0.00;0.00;;;17.10;79.30;;;;;;4158767;28;20130;-76
2022/10/07 06:55:22;;;;;;;0.00;0.00;;;17.10;79.30;;;;;;4198061;28;20047;-75
2022/10/07 06:58:04;;;;;;;0.20;0.20;;;17.10;79.20;;;;;;4183347;28;20051;-74
2022/10/07 07:00:51;;;;;;;0.00;0.00;;;17.10;79.10;;;;;;4170339;28;20171;-76
2022/10/07 07:03:35;;;;;;;0.00;0.00;;;17.00;79.00;;;;;;4165022;28;20183;-76
2022/10/07 07:06:16;;;;;;;;;;;17.00;78.90;;;;;;4178711;28;20048;-76
2022/10/07 07:08:59;;;;;;;1.55;1.27;;;17.00;78.80;;;;;;4190295;28;20074;-76
2022/10/07 07:11:44;;;;;;;0.00;0.00;;;17.00;78.80;;;;;;4191907;28;20126;-77
2022/10/07 07:14:33;;;;;;;0.15;0.15;;;17.00;78.80;;;;;;4160910;28;20132;-76
2022/10/07 07:17:22;;;;;;;0.00;0.00;;;17.00;78.80;;;;;;4161382;28;20506;-75
2022/10/07 07:20:03;;;;;;;0.00;0.00;;;17.00;78.80;;;;;;4178297;28;20566;-69
2022/10/07 07:22:44;;;;;;;0.10;0.10;;;17.00;78.80;;;;;;4177569;28;20055;-69
2022/10/07 07:25:26;;;;;;;0.00;0.00;;;17.00;78.80;;;;;;4175823;28;20082;-75
2022/10/07 07:28:08;;;;;;;0.10;0.10;;;17.00;78.80;;;;;;4160752;28;20052;-76
2022/10/07 07:30:50;;;;;;;0.00;0.00;;;17.00;78.70;;;;;;4161417;28;20499;-70
2022/10/07 07:33:31;;;;;;;0.32;0.32;;;17.00;79.20;;;;;;4188988;28;20551;-70
2022/10/07 07:36:15;;;;;;;0.00;0.00;;;17.00;78.70;;;;;;4186279;28;20459;-69
2022/10/07 07:39:02;;;;;;;0.00;0.00;;;17.00;78.60;;;;;;4165673;28;20052;-69
2022/10/07 07:41:46;;;;;;;0.00;0.00;;;17.00;78.50;;;;;;4161407;28;20052;-70
2022/10/07 07:44:32;;;;;;;0.00;0.00;;;17.00;78.50;;;;;;4158112;28;20048;-69
2022/10/07 07:47:15;;;;;;;0.00;0.00;;;17.10;78.50;;;;;;4178113;28;20079;-69
2022/10/07 07:49:57;;;;;;;2.70;1.52;;;17.10;78.40;;;;;;4181144;28;20173;-71
2022/10/07 07:52:43;;;;;;;0.00;0.00;;;17.10;78.40;;;;;;4164023;28;20487;-71
2022/10/07 07:55:24;;;;;;;0.00;0.00;;;17.10;78.20;;;;;;4183550;28;20063;-71
2022/10/07 07:58:07;;;;;;;0.00;0.00;;;17.20;78.10;;;;;;4188941;28;20158;-69
2022/10/07 08:01:00;;;;;;;0.00;0.00;;;17.20;78.00;;;;;;4178776;28;20055;-71
2022/10/07 08:03:45;;;;;;;0.00;0.00;;;17.20;77.80;;;;;;4159119;28;20144;-70
2022/10/07 08:06:27;;;;;;;0.00;0.00;;;17.30;77.80;;;;;;4150196;28;20573;-70
2022/10/07 08:09:11;;;;;;;0.00;0.00;;;17.30;77.60;;;;;;4170833;28;20073;-69
2022/10/07 08:11:56;;;;;;;0.00;0.00;;;17.40;77.60;;;;;;4165109;28;20828;-70
2022/10/07 08:14:37;;;;;;;0.00;0.00;;;17.40;77.40;;;;;;4172939;28;20186;-70
2022/10/07 08:17:20;;;;;;;0.00;0.00;;;17.40;77.30;;;;;;4160230;28;20047;-70
2022/10/07 08:20:02;;;;;;;0.00;0.00;;;17.40;77.10;;;;;;4160631;28;20183;-70
2022/10/07 08:22:44;;;;;;;0.10;0.10;;;17.50;77.10;;;;;;4187792;28;20051;-69
2022/10/07 08:25:27;;;;;;;0.05;0.05;;;17.50;76.90;;;;;;4174482;28;20399;-70
2022/10/07 08:28:08;;;;;;;0.00;0.00;;;17.50;76.80;;;;;;4149198;28;20080;-69
2022/10/07 08:30:49;;;;;;;0.00;0.00;;;17.50;76.70;;;;;;4189446;28;20052;-74
2022/10/07 08:33:35;;;;;;;0.10;0.10;;;17.50;76.50;;;;;;4189024;28;20059;-75
2022/10/07 08:36:18;;;;;;;1.02;1.00;;;17.50;76.30;;;;;;4189704;28;20510;-70
2022/10/07 08:38:59;;;;;;;0.00;0.00;;;17.50;76.60;;;;;;4189609;28;20411;-71
2022/10/07 08:41:52;;;;;;;0.00;0.00;;;17.50;77.60;;;;;;4190136;28;20043;-71
2022/10/07 08:44:37;;;;;;;0.00;0.00;;;17.50;77.80;;;;;;4188740;28;20052;-70
2022/10/07 08:47:25;;;;;;;0.00;0.00;;;17.50;77.40;;;;;;4189129;28;20055;-70
2022/10/07 08:50:12;;;;;;;0.10;0.10;;;17.50;77.20;;;;;;4191122;28;20071;-70
2022/10/07 08:53:01;;;;;;;0.40;0.40;;;17.60;77.20;;;;;;4191272;28;20059;-71
2022/10/07 08:55:46;;;;;;;0.90;0.90;;;17.60;77.20;;;;;;4191648;28;20051;-70
2022/10/07 08:58:42;;;;;;;0.00;0.00;;;17.60;77.30;;;;;;4175085;28;20443;-70
2022/10/07 09:01:35;;;;;;;0.20;0.20;;;17.60;77.40;;;;;;4190447;28;20178;-71
2022/10/07 09:04:27;;;;;;;0.10;0.10;;;17.70;77.40;;;;;;4174899;28;20167;-70
2022/10/07 09:07:14;;;;;;;0.00;0.00;;;17.70;77.30;;;;;;4173219;28;20059;-71
2022/10/07 09:10:00;;;;;;;1.27;1.17;;;17.70;77.20;;;;;;4162344;28;20507;-69
2022/10/07 09:12:47;;;;;;;0.00;0.00;;;17.70;77.10;;;;;;4175090;28;20048;-70
2022/10/07 09:15:37;;;;;;;0.17;0.17;;;17.80;77.10;;;;;;4176061;28;20195;-70
2022/10/07 09:18:24;;;;;;;0.00;0.00;;;17.80;77.00;;;;;;4190692;28;20109;-70
2022/10/07 09:21:08;;;;;;;0.00;0.00;;;17.80;76.80;;;;;;4190783;28;20067;-71
2022/10/07 09:23:56;;;;;;;0.70;0.70;;;17.80;76.70;;;;;;4179109;28;20071;-70
2022/10/07 09:26:37;;;;;;;0.00;0.00;;;17.90;76.70;;;;;;4191036;28;20118;-70
2022/10/07 09:29:20;;;;;;;0.00;0.00;;;17.90;76.60;;;;;;4190952;28;20824;-70
2022/10/07 09:32:00;;;;;;;0.10;0.10;;;17.90;76.60;;;;;;4190427;28;20060;-70
2022/10/07 09:34:41;;;;;;;0.00;0.00;;;17.90;76.50;;;;;;4191830;28;20151;-71
2022/10/07 09:37:25;;;;;;;0.00;0.00;;;18.00;76.50;;;;;;4190610;28;20059;-71
2022/10/07 09:40:31;;;;;;;0.38;0.38;;;18.00;76.40;;;;;;4191507;28;20513;-71
2022/10/07 09:43:13;;;;;;;0.10;0.10;;;18.00;76.50;;;;;;4191890;28;20048;-70
2022/10/07 09:45:55;;;;;;;0.00;0.00;;;18.00;76.40;;;;;;4191652;28;20071;-71
2022/10/07 09:48:36;;;;;;;0.00;0.00;;;18.00;76.40;;;;;;4190695;28;20059;-72
2022/10/07 09:51:24;;;;;;;0.00;0.00;;;18.00;76.30;;;;;;4181821;28;20079;-73
2022/10/07 09:54:17;;;;;;;0.00;0.00;;;18.00;77.20;;;;;;4190807;28;20487;-73
2022/10/07 09:57:02;;;;;;;0.00;0.00;;;18.00;76.30;;;;;;4189989;28;20055;-72
2022/10/07 09:59:42;;;;;;;0.00;0.00;;;18.10;77.20;;;;;;4190394;28;20131;-72
2022/10/07 10:02:25;;;;;;;0.47;0.47;;;18.10;76.30;;;;;;4174112;28;20047;-72
2022/10/07 10:05:21;;;;;;;0.00;0.00;;;18.10;76.30;;;;;;4175597;28;20278;-73
2022/10/07 10:08:05;;;;;;;0.00;0.00;;;18.10;76.20;;;;;;4174084;28;20066;-73
2022/10/07 10:10:52;;;;;;;0.52;0.52;;;18.10;76.20;;;;;;4171832;28;20068;-73
2022/10/07 10:13:36;;;;;;;0.00;0.00;;;18.10;76.30;;;;;;4190913;28;20059;-73
2022/10/07 10:16:34;;;;;;;0.17;0.17;;;18.10;76.30;;;;;;4191151;28;20174;-73
2022/10/07 10:19:23;;;;;;;0.30;0.30;;;18.10;76.30;;;;;;4189716;28;20047;-72
2022/10/07 10:22:04;;;;;;;0.00;0.00;;;18.10;76.40;;;;;;4184515;28;20055;-72
2022/10/07 10:27:52;;;;;;;0.00;0.00;;;18.10;76.40;;;;;;4191323;28;20182;-70
2022/10/07 10:30:46;;;;;;;0.00;0.00;;;18.10;76.40;;;;;;4191537;28;20068;-70
2022/10/07 10:33:35;;;;;;;0.00;0.00;;;18.20;76.50;;;;;;4194737;28;20071;-71
2022/10/07 10:36:20;;;;;;;0.77;0.77;;;18.10;76.50;;;;;;4177125;28;20518;-70
2022/10/07 10:39:04;;;;;;;0.00;0.00;;;18.10;76.50;;;;;;4177418;28;20056;-71
2022/10/07 10:41:52;;;;;;;4.28;0.98;;;18.20;76.50;;;;;;4177179;28;20060;-70
2022/10/07 10:44:50;;;;;;;0.00;0.00;;;18.10;76.50;;;;;;4165413;28;20052;-70
2022/10/07 10:47:47;;;;;;;0.45;0.45;;;18.20;76.50;;;;;;4177402;28;20609;-70
2022/10/07 10:50:35;;;;;;;0.00;0.00;;;18.20;76.50;;;;;;4187925;28;20066;-70
2022/10/07 10:53:26;;;;;;;0.17;0.17;;;18.20;76.50;;;;;;4177689;28;20048;-72
2022/10/07 10:56:25;;;;;;;0.00;0.00;;;18.20;76.60;;;;;;4176900;28;20572;-72
2022/10/07 10:59:20;;;;;;;0.00;0.00;;;18.30;77.40;;;;;;4177385;28;20052;-72
2022/10/07 11:02:19;;;;;;;0.00;0.00;;;18.30;77.50;;;;;;4181283;28;20071;-72
2022/10/07 11:05:05;;;;;;;0.40;0.40;;;18.30;76.60;;;;;;4169831;28;20407;-70
2022/10/07 11:07:52;;;;;;;0.00;0.00;;;18.30;76.50;;;;;;4160179;28;20600;-70
2022/10/07 11:10:40;;;;;;;0.95;0.63;;;18.40;76.60;;;;;;4160356;28;20075;-70
2022/10/07 11:13:30;;;;;;;5.63;0.90;;;18.40;76.70;;;;;;4148565;28;20049;-70
2022/10/07 11:16:16;;;;;;;0.00;0.00;;;18.40;76.70;;;;;;4159781;28;20053;-70
2022/10/07 11:19:01;;;;;;;0.00;0.00;;;18.50;76.70;;;;;;4176807;28;20063;-70
2022/10/07 11:21:47;;;;;;;0.00;0.00;;;18.50;76.60;;;;;;4193403;28;20067;-70
2022/10/07 11:24:32;;;;;;;0.00;0.00;;;18.50;76.60;;;;;;4164749;28;20150;-70
2022/10/07 11:27:19;;;;;;;0.00;0.00;;;18.60;76.70;;;;;;4176774;28;20059;-69
2022/10/07 11:30:06;;;;;;;0.00;0.00;;;18.60;76.70;;;;;;4176529;28;20051;-70
2022/10/07 11:32:54;;;;;;;0.00;0.00;;;18.60;76.60;;;;;;4176059;28;20052;-71
2022/10/07 11:35:42;;;;;;;0.80;0.80;;;18.70;76.70;;;;;;4176927;28;20125;-70
2022/10/07 11:38:28;;;;;;;0.00;0.00;;;18.70;76.70;;;;;;4180133;28;20067;-70
2022/10/07 11:41:15;;;;;;;0.00;0.00;;;18.70;76.70;;;;;;4193231;28;20062;-70
2022/10/07 11:44:06;;;;;;;0.00;0.00;;;18.70;76.70;;;;;;4192833;28;20051;-70
2022/10/07 11:46:48;;;;;;;0.00;0.00;;;18.80;76.80;;;;;;4193561;28;20043;-70
2022/10/07 11:49:33;;;;;;;0.00;0.00;;;18.80;76.80;;;;;;4193708;28;20207;-70
2022/10/07 11:52:23;;;;;;;0.00;0.00;;;18.80;76.70;;;;;;4192849;28;20390;-70
2022/10/07 11:55:08;;;;;;;0.00;0.00;;;18.90;76.80;;;;;;4193101;28;20117;-70
2022/10/07 11:57:54;;;;;;;0.35;0.35;;;18.90;76.80;;;;;;4193272;28;20044;-70
2022/10/07 12:00:38;;;;;;;3.80;1.08;;;18.90;76.80;;;;;;4193200;28;20051;-71
2022/10/07 12:03:50;;;;;;;0.10;0.10;;;18.90;76.80;;;;;;4192858;28;20047;-70
2022/10/07 12:06:30;;;;;;;;;;;19.00;76.90;;;;;;4134036;28;20900;-71
2022/10/07 12:09:59;;;;;;;0.00;0.00;;;19.00;76.70;;;;;;4193607;28;20294;-73
2022/10/07 12:12:49;;;;;;;0.00;0.00;;;19.00;76.70;;;;;;4128517;28;20401;-72
2022/10/07 12:15:34;;;;;;;0.00;0.00;;;19.00;76.70;;;;;;4129310;28;20212;-72
2022/10/07 12:18:27;;;;;;;0.00;0.00;;;19.00;76.80;;;;;;4161962;28;20051;-71
2022/10/07 12:21:11;;;;;;;0.00;0.00;;;19.10;76.80;;;;;;4175056;28;20134;-70
2022/10/07 12:24:14;;;;;;;0.00;0.00;;;19.10;76.70;;;;;;4176242;28;20059;-71
2022/10/07 12:26:56;;;;;;;0.00;0.00;;;19.10;76.80;;;;;;4176150;28;20051;-70
2022/10/07 12:29:58;;;;;;;0.52;0.38;;;19.10;76.70;;;;;;4191176;28;20051;-70
2022/10/07 12:32:55;;;;;;;0.00;0.00;;;19.10;76.50;;;;;;4192995;28;20183;-70
2022/10/07 12:35:55;;;;;;;0.00;0.00;;;19.10;76.50;;;;;;4191139;28;20063;-70
2022/10/07 12:38:37;;;;;;;0.00;0.00;;;19.10;75.70;;;;;;4189902;28;20197;-71
2022/10/07 12:41:23;;;;;;;0.35;0.35;;;19.00;76.30;;;;;;4174826;28;20573;-71
2022/10/07 12:44:16;;;;;;;0.00;0.00;;;19.10;76.30;;;;;;4179799;28;20066;-71
2022/10/07 12:47:03;;;;;;;0.00;0.00;;;19.00;76.30;;;;;;4174720;28;20067;-71
2022/10/07 12:49:48;;;;;;;0.00;0.00;;;19.00;76.30;;;;;;4143972;28;20044;-70
2022/10/07 12:52:41;;;;;;;0.00;0.00;;;19.00;76.30;;;;;;4175635;28;20052;-69
2022/10/07 12:55:29;;;;;;;0.98;0.98;;;19.00;76.20;;;;;;4174386;28;20048;-75
2022/10/07 13:02:23;;;;;;;0.90;0.90;;;19.10;76.60;;;;;;4185440;28;20052;-76
2022/10/07 13:05:40;;;;;;;0.00;0.00;;;19.10;76.30;;;;;;4186217;28;20043;-70
2022/10/07 13:09:01;;;;;;;0.00;0.00;;;19.10;76.10;;;;;;4175447;28;20070;-70
2022/10/07 13:12:15;;;;;;;0.00;0.00;;;19.10;76.90;;;;;;4171104;28;20048;-70
2022/10/07 13:15:06;;;;;;;0.00;0.00;;;19.00;76.10;;;;;;4191061;28;20561;-70
2022/10/07 13:17:53;;;;;;;0.00;0.00;;;19.00;75.90;;;;;;4188693;28;20055;-75
2022/10/07 13:20:47;;;;;;;0.00;0.00;;;19.10;76.80;;;;;;4189637;28;20106;-70
2022/10/07 13:23:31;;;;;;;0.00;0.00;;;19.00;76.00;;;;;;4190177;28;20193;-70
2022/10/07 13:26:13;;;;;;;0.00;0.00;;;19.00;75.90;;;;;;4191253;28;20052;-76
2022/10/07 13:28:56;;;;;;;0.00;0.00;;;19.00;76.80;;;;;;4190439;28;20048;-76
2022/10/07 13:31:37;;;;;;;0.00;0.00;;;19.00;75.90;;;;;;4191854;28;20048;-75
2022/10/07 13:34:20;;;;;;;0.00;0.00;;;19.00;75.90;;;;;;4174486;28;20126;-76
2022/10/07 13:37:02;;;;;;;0.00;0.00;;;19.00;75.90;;;;;;4189636;28;20603;-77
2022/10/07 13:39:42;;;;;;;0.00;0.00;;;19.00;76.00;;;;;;4191187;28;20047;-76
2022/10/07 13:42:27;;;;;;;0.00;0.00;;;19.10;76.00;;;;;;4191295;28;20147;-76
2022/10/07 13:45:14;;;;;;;0.30;0.30;;;19.10;76.00;;;;;;4175897;28;20044;-76
2022/10/07 13:47:56;;;;;;;0.00;0.00;;;19.10;76.00;;;;;;4177550;28;20513;-74
2022/10/07 13:50:38;;;;;;;0.00;0.00;;;19.10;76.10;;;;;;4191449;28;20518;-75
2022/10/07 13:53:22;;;;;;;0.00;0.00;;;19.10;76.10;;;;;;4186886;28;20419;-75
2022/10/07 13:56:20;;;;;;;0.00;0.00;;;19.10;76.10;;;;;;4199690;28;20071;-76
2022/10/07 13:59:02;;;;;;;0.00;0.00;;;19.10;76.00;;;;;;4177668;28;20051;-75
2022/10/07 14:01:46;;;;;;;0.00;0.00;;;19.10;76.00;;;;;;4190965;28;20453;-76
2022/10/07 14:04:30;;;;;;;0.00;0.00;;;19.10;75.90;;;;;;4203877;28;20094;-70
2022/10/07 14:07:18;;;;;;;0.00;0.00;;;19.10;75.90;;;;;;4173449;28;20060;-75
2022/10/07 14:10:08;;;;;;;0.00;0.00;;;19.10;76.20;;;;;;4171295;28;20133;-73
2022/10/07 14:12:55;;;;;;;0.10;0.10;;;19.10;76.20;;;;;;4173796;28;20051;-76
2022/10/07 14:15:38;;;;;;;0.00;0.00;;;19.10;76.30;;;;;;4174466;28;20142;-72
2022/10/07 14:18:20;;;;;;;0.00;0.00;;;19.10;76.70;;;;;;4157457;28;20064;-70
2022/10/07 14:21:09;;;;;;;0.70;0.70;;;19.10;77.10;;;;;;4155238;28;20052;-71
2022/10/07 14:23:51;;;;;;;0.60;0.60;;;19.10;77.20;;;;;;4190756;28;20606;-70
2022/10/07 14:26:43;;;;;;;0.00;0.00;;;19.10;77.10;;;;;;4191576;28;20419;-71
2022/10/07 14:29:37;;;;;;;1.65;1.40;;;19.10;76.90;;;;;;4190838;28;20202;-69
2022/10/07 14:35:22;;;;;;;0.00;0.00;;;19.10;76.50;;;;;;4173519;28;20059;-71
2022/10/07 14:38:26;;;;;;;0.00;0.00;;;19.10;76.20;;;;;;4154092;28;20048;-69
2022/10/07 14:41:09;;;;;;;0.00;0.00;;;19.10;75.90;;;;;;4202935;28;20063;-71